sensor_id;sensor_type;location;lat;lon;timestamp;temperature;humidity
5802;DHT22;2927;49.366;8.530;2023-08-30T00:00:05;14.40;99.90
5802;DHT22;2927;49.366;8.530;2023-08-30T00:02:30;14.40;99.90
5802;DHT22;2927;49.366;8.530;2023-08-30T00:04:59;14.40;99.90
5802;DHT22;2927;49.366;8.530;2023-08-30T00:07:25;14.40;99.90
5802;DHT22;2927;49.366;8.530;2023-08-30T00:09:51;14.40;99.90
5802;DHT22;2927;49.366;8.530;2023-08-30T00:12:17;14.40;99.90
5802;DHT22;2927;49.366;8.530;2023-08-30T00:14:42;14.30;99.90
5802;DHT22;2927;49.366;8.530;2023-08-30T00:17:08;14.40;99.90
5802;DHT22;2927;49.366;8.530;2023-08-30T00:19:34;14.40;99.90
5802;DHT22;2927;49.366;8.530;2023-08-30T00:21:59;14.40;99.90
5802;DHT22;2927;49.366;8.530;2023-08-30T00:24:25;14.30;99.90
5802;DHT22;2927;49.366;8.530;2023-08-30T00:26:50;14.30;99.90
5802;DHT22;2927;49.366;8.530;2023-08-30T00:29:16;14.30;99.90
5802;DHT22;2927;49.366;8.530;2023-08-30T00:31:41;14.30;99.90
5802;DHT22;2927;49.366;8.530;2023-08-30T00:34:07;14.30;99.90
5802;DHT22;2927;49.366;8.530;2023-08-30T00:36:32;14.20;99.90
5802;DHT22;2927;49.366;8.530;2023-08-30T00:38:58;14.20;99.90
5802;DHT22;2927;49.366;8.530;2023-08-30T00:41:23;14.20;99.90
5802;DHT22;2927;49.366;8.530;2023-08-30T00:43:49;14.30;99.90
5802;DHT22;2927;49.366;8.530;2023-08-30T00:46:15;14.30;99.90
5802;DHT22;2927;49.366;8.530;2023-08-30T00:48:41;14.30;99.90
5802;DHT22;2927;49.366;8.530;2023-08-30T00:51:07;14.20;99.90
5802;DHT22;2927;49.366;8.530;2023-08-30T00:53:33;14.20;99.90
5802;DHT22;2927;49.366;8.530;2023-08-30T00:55:58;14.20;99.90
5802;DHT22;2927;49.366;8.530;2023-08-30T00:58:24;14.20;99.90
5802;DHT22;2927;49.366;8.530;2023-08-30T01:00:52;14.20;99.90
5802;DHT22;2927;49.366;8.530;2023-08-30T01:03:18;14.20;99.90
5802;DHT22;2927;49.366;8.530;2023-08-30T01:05:45;14.20;99.90
5802;DHT22;2927;49.366;8.530;2023-08-30T01:08:11;14.20;99.90
5802;DHT22;2927;49.366;8.530;2023-08-30T01:10:59;14.20;99.90
5802;DHT22;2927;49.366;8.530;2023-08-30T01:13:30;14.20;99.90
5802;DHT22;2927;49.366;8.530;2023-08-30T01:15:58;14.20;99.90
5802;DHT22;2927;49.366;8.530;2023-08-30T01:18:32;14.20;99.90
5802;DHT22;2927;49.366;8.530;2023-08-30T01:21:01;14.20;99.90
5802;DHT22;2927;49.366;8.530;2023-08-30T01:28:51;14.30;99.90
5802;DHT22;2927;49.366;8.530;2023-08-30T01:31:18;14.30;99.90
5802;DHT22;2927;49.366;8.530;2023-08-30T01:33:45;14.20;99.90
5802;DHT22;2927;49.366;8.530;2023-08-30T01:36:11;14.20;99.90
5802;DHT22;2927;49.366;8.530;2023-08-30T01:38:38;14.30;99.90
5802;DHT22;2927;49.366;8.530;2023-08-30T01:41:04;14.30;99.90
5802;DHT22;2927;49.366;8.530;2023-08-30T01:43:30;14.30;99.90
5802;DHT22;2927;49.366;8.530;2023-08-30T01:45:57;14.30;99.90
5802;DHT22;2927;49.366;8.530;2023-08-30T01:48:24;14.30;99.90
5802;DHT22;2927;49.366;8.530;2023-08-30T01:50:51;14.30;99.90
5802;DHT22;2927;49.366;8.530;2023-08-30T01:53:17;14.40;99.90
5802;DHT22;2927;49.366;8.530;2023-08-30T01:55:43;14.30;99.90
5802;DHT22;2927;49.366;8.530;2023-08-30T01:58:09;14.30;99.90
5802;DHT22;2927;49.366;8.530;2023-08-30T02:00:38;14.40;99.90
5802;DHT22;2927;49.366;8.530;2023-08-30T02:03:12;14.40;99.90
5802;DHT22;2927;49.366;8.530;2023-08-30T02:06:06;14.40;99.90
5802;DHT22;2927;49.366;8.530;2023-08-30T02:08:41;14.40;99.90
5802;DHT22;2927;49.366;8.530;2023-08-30T02:11:23;14.40;99.90
5802;DHT22;2927;49.366;8.530;2023-08-30T02:13:50;14.40;99.90
5802;DHT22;2927;49.366;8.530;2023-08-30T02:16:18;14.40;99.90
5802;DHT22;2927;49.366;8.530;2023-08-30T02:18:44;14.50;99.90
5802;DHT22;2927;49.366;8.530;2023-08-30T02:21:10;14.50;99.90
5802;DHT22;2927;49.366;8.530;2023-08-30T02:23:35;14.50;99.90
5802;DHT22;2927;49.366;8.530;2023-08-30T02:26:02;14.60;99.90
5802;DHT22;2927;49.366;8.530;2023-08-30T02:28:28;14.60;99.90
5802;DHT22;2927;49.366;8.530;2023-08-30T02:30:54;14.60;99.90
5802;DHT22;2927;49.366;8.530;2023-08-30T02:33:20;14.60;99.90
5802;DHT22;2927;49.366;8.530;2023-08-30T02:35:46;14.60;99.90
5802;DHT22;2927;49.366;8.530;2023-08-30T02:38:12;14.70;99.90
5802;DHT22;2927;49.366;8.530;2023-08-30T02:40:37;14.70;99.90
5802;DHT22;2927;49.366;8.530;2023-08-30T02:43:03;14.70;99.90
5802;DHT22;2927;49.366;8.530;2023-08-30T02:45:29;14.70;99.90
5802;DHT22;2927;49.366;8.530;2023-08-30T02:47:57;14.60;99.90
5802;DHT22;2927;49.366;8.530;2023-08-30T02:50:24;14.60;99.90
5802;DHT22;2927;49.366;8.530;2023-08-30T02:52:50;14.60;99.90
5802;DHT22;2927;49.366;8.530;2023-08-30T02:55:15;14.60;99.90
5802;DHT22;2927;49.366;8.530;2023-08-30T02:57:41;14.60;99.90
5802;DHT22;2927;49.366;8.530;2023-08-30T03:00:07;14.60;99.90
5802;DHT22;2927;49.366;8.530;2023-08-30T03:02:33;14.60;99.90
5802;DHT22;2927;49.366;8.530;2023-08-30T03:05:01;14.60;99.90
5802;DHT22;2927;49.366;8.530;2023-08-30T03:07:28;14.60;99.90
5802;DHT22;2927;49.366;8.530;2023-08-30T03:09:54;14.60;99.90
5802;DHT22;2927;49.366;8.530;2023-08-30T03:12:20;14.60;99.90
5802;DHT22;2927;49.366;8.530;2023-08-30T03:14:46;14.60;99.90
5802;DHT22;2927;49.366;8.530;2023-08-30T03:17:12;14.60;99.90
5802;DHT22;2927;49.366;8.530;2023-08-30T03:19:37;14.60;99.90
5802;DHT22;2927;49.366;8.530;2023-08-30T03:22:03;14.60;99.90
5802;DHT22;2927;49.366;8.530;2023-08-30T03:24:29;14.50;99.90
5802;DHT22;2927;49.366;8.530;2023-08-30T03:26:54;14.50;99.90
5802;DHT22;2927;49.366;8.530;2023-08-30T03:29:20;14.50;99.90
5802;DHT22;2927;49.366;8.530;2023-08-30T03:31:45;14.50;99.90
5802;DHT22;2927;49.366;8.530;2023-08-30T03:34:11;14.50;99.90
5802;DHT22;2927;49.366;8.530;2023-08-30T03:36:37;14.50;99.90
5802;DHT22;2927;49.366;8.530;2023-08-30T03:39:03;14.50;99.90
5802;DHT22;2927;49.366;8.530;2023-08-30T03:41:28;14.50;99.90
5802;DHT22;2927;49.366;8.530;2023-08-30T03:43:54;14.50;99.90
5802;DHT22;2927;49.366;8.530;2023-08-30T03:46:20;14.50;99.90
5802;DHT22;2927;49.366;8.530;2023-08-30T03:48:45;14.50;99.90
5802;DHT22;2927;49.366;8.530;2023-08-30T03:51:11;14.50;99.90
5802;DHT22;2927;49.366;8.530;2023-08-30T03:53:36;14.50;99.90
5802;DHT22;2927;49.366;8.530;2023-08-30T03:56:02;14.50;99.90
5802;DHT22;2927;49.366;8.530;2023-08-30T03:58:29;14.50;99.90
5802;DHT22;2927;49.366;8.530;2023-08-30T04:00:54;14.50;99.90
5802;DHT22;2927;49.366;8.530;2023-08-30T04:03:20;14.40;99.90
5802;DHT22;2927;49.366;8.530;2023-08-30T04:05:45;14.50;99.90
5802;DHT22;2927;49.366;8.530;2023-08-30T04:08:11;14.50;99.90
5802;DHT22;2927;49.366;8.530;2023-08-30T04:10:41;14.40;99.90
5802;DHT22;2927;49.366;8.530;2023-08-30T04:13:08;14.40;99.90
5802;DHT22;2927;49.366;8.530;2023-08-30T04:15:35;14.40;99.90
5802;DHT22;2927;49.366;8.530;2023-08-30T04:18:01;14.40;99.90
5802;DHT22;2927;49.366;8.530;2023-08-30T04:20:27;14.30;99.90
5802;DHT22;2927;49.366;8.530;2023-08-30T04:22:52;14.30;99.90
5802;DHT22;2927;49.366;8.530;2023-08-30T04:25:20;14.30;99.90
5802;DHT22;2927;49.366;8.530;2023-08-30T04:27:46;14.30;99.90
5802;DHT22;2927;49.366;8.530;2023-08-30T04:30:12;14.30;99.90
5802;DHT22;2927;49.366;8.530;2023-08-30T04:32:37;14.30;99.90
5802;DHT22;2927;49.366;8.530;2023-08-30T04:35:03;14.30;99.90
5802;DHT22;2927;49.366;8.530;2023-08-30T04:37:32;14.30;99.90
5802;DHT22;2927;49.366;8.530;2023-08-30T04:39:58;14.20;99.90
5802;DHT22;2927;49.366;8.530;2023-08-30T04:42:23;14.20;99.90
5802;DHT22;2927;49.366;8.530;2023-08-30T04:44:50;14.20;99.90
5802;DHT22;2927;49.366;8.530;2023-08-30T04:47:16;14.20;99.90
5802;DHT22;2927;49.366;8.530;2023-08-30T04:49:42;14.20;99.90
5802;DHT22;2927;49.366;8.530;2023-08-30T04:52:08;14.30;99.90
5802;DHT22;2927;49.366;8.530;2023-08-30T04:54:33;14.20;99.90
5802;DHT22;2927;49.366;8.530;2023-08-30T04:56:59;14.30;99.90
5802;DHT22;2927;49.366;8.530;2023-08-30T04:59:24;14.30;99.90
5802;DHT22;2927;49.366;8.530;2023-08-30T05:01:50;14.30;99.90
5802;DHT22;2927;49.366;8.530;2023-08-30T05:04:17;14.30;99.90
5802;DHT22;2927;49.366;8.530;2023-08-30T05:06:42;14.30;99.90
5802;DHT22;2927;49.366;8.530;2023-08-30T05:09:08;14.30;99.90
5802;DHT22;2927;49.366;8.530;2023-08-30T05:11:34;14.40;99.90
5802;DHT22;2927;49.366;8.530;2023-08-30T05:13:59;14.40;99.90
5802;DHT22;2927;49.366;8.530;2023-08-30T05:16:25;14.50;99.90
5802;DHT22;2927;49.366;8.530;2023-08-30T05:18:50;14.50;99.90
5802;DHT22;2927;49.366;8.530;2023-08-30T05:21:16;14.60;99.90
5802;DHT22;2927;49.366;8.530;2023-08-30T05:23:42;14.60;99.90
5802;DHT22;2927;49.366;8.530;2023-08-30T05:26:11;14.60;99.90
5802;DHT22;2927;49.366;8.530;2023-08-30T05:28:38;14.70;99.90
5802;DHT22;2927;49.366;8.530;2023-08-30T05:31:04;14.70;99.90
5802;DHT22;2927;49.366;8.530;2023-08-30T05:33:30;14.70;99.90
5802;DHT22;2927;49.366;8.530;2023-08-30T05:35:55;14.80;99.90
5802;DHT22;2927;49.366;8.530;2023-08-30T05:38:21;14.80;99.90
5802;DHT22;2927;49.366;8.530;2023-08-30T05:40:47;14.80;99.90
5802;DHT22;2927;49.366;8.530;2023-08-30T05:43:12;14.90;99.90
5802;DHT22;2927;49.366;8.530;2023-08-30T05:45:38;14.90;99.90
5802;DHT22;2927;49.366;8.530;2023-08-30T05:48:04;15.00;99.90
5802;DHT22;2927;49.366;8.530;2023-08-30T05:50:30;15.10;99.90
5802;DHT22;2927;49.366;8.530;2023-08-30T05:52:56;15.20;99.90
5802;DHT22;2927;49.366;8.530;2023-08-30T05:55:21;15.20;99.90
5802;DHT22;2927;49.366;8.530;2023-08-30T05:57:47;15.30;99.90
5802;DHT22;2927;49.366;8.530;2023-08-30T06:00:12;15.40;99.90
5802;DHT22;2927;49.366;8.530;2023-08-30T06:02:39;15.50;99.90
5802;DHT22;2927;49.366;8.530;2023-08-30T06:05:05;15.50;99.90
5802;DHT22;2927;49.366;8.530;2023-08-30T06:07:32;15.70;99.90
5802;DHT22;2927;49.366;8.530;2023-08-30T06:09:58;15.70;99.90
5802;DHT22;2927;49.366;8.530;2023-08-30T06:12:23;15.80;99.90
5802;DHT22;2927;49.366;8.530;2023-08-30T06:14:51;16.00;99.90
5802;DHT22;2927;49.366;8.530;2023-08-30T06:17:18;16.20;99.90
5802;DHT22;2927;49.366;8.530;2023-08-30T06:19:47;16.70;99.90
5802;DHT22;2927;49.366;8.530;2023-08-30T06:22:13;16.80;99.90
5802;DHT22;2927;49.366;8.530;2023-08-30T06:24:39;17.00;99.90
5802;DHT22;2927;49.366;8.530;2023-08-30T06:27:05;17.00;99.90
5802;DHT22;2927;49.366;8.530;2023-08-30T06:29:30;16.90;99.90
5802;DHT22;2927;49.366;8.530;2023-08-30T06:31:56;16.70;99.90
5802;DHT22;2927;49.366;8.530;2023-08-30T06:34:22;16.60;99.90
5802;DHT22;2927;49.366;8.530;2023-08-30T06:36:47;16.50;99.90
5802;DHT22;2927;49.366;8.530;2023-08-30T06:39:13;16.50;99.90
5802;DHT22;2927;49.366;8.530;2023-08-30T06:41:39;16.60;99.90
5802;DHT22;2927;49.366;8.530;2023-08-30T06:44:05;16.70;99.90
5802;DHT22;2927;49.366;8.530;2023-08-30T06:46:32;16.80;99.90
5802;DHT22;2927;49.366;8.530;2023-08-30T06:48:57;16.80;99.90
5802;DHT22;2927;49.366;8.530;2023-08-30T06:51:23;16.80;99.90
5802;DHT22;2927;49.366;8.530;2023-08-30T06:53:50;16.80;99.90
5802;DHT22;2927;49.366;8.530;2023-08-30T06:56:16;16.90;99.90
5802;DHT22;2927;49.366;8.530;2023-08-30T06:58:41;17.10;99.90
5802;DHT22;2927;49.366;8.530;2023-08-30T07:01:07;17.60;99.90
5802;DHT22;2927;49.366;8.530;2023-08-30T07:03:32;18.40;1.00
5802;DHT22;2927;49.366;8.530;2023-08-30T07:05:58;19.30;1.00
5802;DHT22;2927;49.366;8.530;2023-08-30T07:08:23;19.90;1.00
5802;DHT22;2927;49.366;8.530;2023-08-30T07:10:51;20.60;99.90
5802;DHT22;2927;49.366;8.530;2023-08-30T07:13:16;20.90;1.00
5802;DHT22;2927;49.366;8.530;2023-08-30T07:15:42;21.20;99.90
5802;DHT22;2927;49.366;8.530;2023-08-30T07:18:08;21.50;99.90
5802;DHT22;2927;49.366;8.530;2023-08-30T07:20:34;21.50;99.90
5802;DHT22;2927;49.366;8.530;2023-08-30T07:23:02;21.30;99.90
5802;DHT22;2927;49.366;8.530;2023-08-30T07:25:32;21.30;61.80
5802;DHT22;2927;49.366;8.530;2023-08-30T07:28:02;21.30;69.90
5802;DHT22;2927;49.366;8.530;2023-08-30T07:30:28;21.60;1.00
5802;DHT22;2927;49.366;8.530;2023-08-30T07:32:54;21.80;1.00
5802;DHT22;2927;49.366;8.530;2023-08-30T07:35:21;21.70;1.00
5802;DHT22;2927;49.366;8.530;2023-08-30T07:37:47;21.80;1.00
5802;DHT22;2927;49.366;8.530;2023-08-30T07:40:12;22.10;1.00
5802;DHT22;2927;49.366;8.530;2023-08-30T07:42:38;21.90;1.00
5802;DHT22;2927;49.366;8.530;2023-08-30T07:45:04;22.00;1.00
5802;DHT22;2927;49.366;8.530;2023-08-30T07:47:30;22.20;1.00
5802;DHT22;2927;49.366;8.530;2023-08-30T07:49:55;22.40;1.00
5802;DHT22;2927;49.366;8.530;2023-08-30T07:52:21;22.30;1.00
5802;DHT22;2927;49.366;8.530;2023-08-30T07:54:47;22.10;1.00
5802;DHT22;2927;49.366;8.530;2023-08-30T07:57:12;22.20;1.00
5802;DHT22;2927;49.366;8.530;2023-08-30T07:59:38;22.10;1.00
5802;DHT22;2927;49.366;8.530;2023-08-30T08:02:04;22.10;1.00
5802;DHT22;2927;49.366;8.530;2023-08-30T08:04:31;22.60;1.00
5802;DHT22;2927;49.366;8.530;2023-08-30T08:06:57;22.50;1.00
5802;DHT22;2927;49.366;8.530;2023-08-30T08:09:23;22.90;1.00
5802;DHT22;2927;49.366;8.530;2023-08-30T08:11:49;23.10;99.90
5802;DHT22;2927;49.366;8.530;2023-08-30T08:14:15;23.50;99.90
5802;DHT22;2927;49.366;8.530;2023-08-30T08:16:41;23.30;99.90
5802;DHT22;2927;49.366;8.530;2023-08-30T08:19:06;23.80;99.90
5802;DHT22;2927;49.366;8.530;2023-08-30T08:21:35;24.10;99.90
5802;DHT22;2927;49.366;8.530;2023-08-30T08:24:01;24.10;99.90
5802;DHT22;2927;49.366;8.530;2023-08-30T08:26:27;24.30;99.90
5802;DHT22;2927;49.366;8.530;2023-08-30T08:28:54;24.70;99.90
5802;DHT22;2927;49.366;8.530;2023-08-30T08:31:20;25.10;99.90
5802;DHT22;2927;49.366;8.530;2023-08-30T08:33:45;25.20;99.90
5802;DHT22;2927;49.366;8.530;2023-08-30T08:36:11;25.20;99.90
5802;DHT22;2927;49.366;8.530;2023-08-30T08:38:37;24.90;99.90
5802;DHT22;2927;49.366;8.530;2023-08-30T08:41:09;24.30;99.90
5802;DHT22;2927;49.366;8.530;2023-08-30T08:43:37;24.70;99.90
5802;DHT22;2927;49.366;8.530;2023-08-30T08:46:06;24.60;99.90
5802;DHT22;2927;49.366;8.530;2023-08-30T08:48:35;24.60;99.90
5802;DHT22;2927;49.366;8.530;2023-08-30T08:51:03;24.60;99.90
5802;DHT22;2927;49.366;8.530;2023-08-30T08:53:29;25.10;99.90
5802;DHT22;2927;49.366;8.530;2023-08-30T08:55:56;25.70;93.90
5802;DHT22;2927;49.366;8.530;2023-08-30T08:58:24;25.80;81.40
5802;DHT22;2927;49.366;8.530;2023-08-30T09:00:49;25.50;58.20
5802;DHT22;2927;49.366;8.530;2023-08-30T09:03:16;26.00;31.60
5802;DHT22;2927;49.366;8.530;2023-08-30T09:05:45;26.30;2.60
5802;DHT22;2927;49.366;8.530;2023-08-30T09:08:12;26.20;1.00
5802;DHT22;2927;49.366;8.530;2023-08-30T09:10:41;26.50;1.00
5802;DHT22;2927;49.366;8.530;2023-08-30T09:13:06;26.80;1.00
5802;DHT22;2927;49.366;8.530;2023-08-30T09:15:33;27.20;1.00
5802;DHT22;2927;49.366;8.530;2023-08-30T09:17:59;27.30;1.00
5802;DHT22;2927;49.366;8.530;2023-08-30T09:20:24;26.40;1.00
5802;DHT22;2927;49.366;8.530;2023-08-30T09:22:50;26.80;1.00
5802;DHT22;2927;49.366;8.530;2023-08-30T09:25:24;27.10;1.00
5802;DHT22;2927;49.366;8.530;2023-08-30T09:27:59;27.10;1.00
5802;DHT22;2927;49.366;8.530;2023-08-30T09:30:25;27.20;1.00
5802;DHT22;2927;49.366;8.530;2023-08-30T09:32:50;27.20;1.00
5802;DHT22;2927;49.366;8.530;2023-08-30T09:35:16;26.80;1.00
5802;DHT22;2927;49.366;8.530;2023-08-30T09:37:44;26.00;1.00
5802;DHT22;2927;49.366;8.530;2023-08-30T09:40:10;25.90;1.00
5802;DHT22;2927;49.366;8.530;2023-08-30T09:42:41;25.70;1.00
5802;DHT22;2927;49.366;8.530;2023-08-30T09:45:21;26.20;1.00
5802;DHT22;2927;49.366;8.530;2023-08-30T09:47:47;26.50;1.00
5802;DHT22;2927;49.366;8.530;2023-08-30T09:50:17;26.80;1.00
5802;DHT22;2927;49.366;8.530;2023-08-30T09:52:43;26.60;1.00
5802;DHT22;2927;49.366;8.530;2023-08-30T09:55:09;25.60;1.00
5802;DHT22;2927;49.366;8.530;2023-08-30T09:57:35;24.90;1.00
5802;DHT22;2927;49.366;8.530;2023-08-30T10:00:01;24.40;1.00
5802;DHT22;2927;49.366;8.530;2023-08-30T10:02:30;24.20;2.80
5802;DHT22;2927;49.366;8.530;2023-08-30T10:04:56;24.30;17.60
5802;DHT22;2927;49.366;8.530;2023-08-30T10:07:23;24.30;8.10
5802;DHT22;2927;49.366;8.530;2023-08-30T10:09:50;24.20;7.10
5802;DHT22;2927;49.366;8.530;2023-08-30T10:12:16;23.60;29.90
5802;DHT22;2927;49.366;8.530;2023-08-30T10:14:44;23.60;70.80
5802;DHT22;2927;49.366;8.530;2023-08-30T10:17:12;23.50;89.80
5802;DHT22;2927;49.366;8.530;2023-08-30T10:19:39;23.80;97.00
5802;DHT22;2927;49.366;8.530;2023-08-30T10:22:06;24.10;84.30
5802;DHT22;2927;49.366;8.530;2023-08-30T10:24:59;23.60;98.20
5802;DHT22;2927;49.366;8.530;2023-08-30T10:27:26;23.30;99.90
5802;DHT22;2927;49.366;8.530;2023-08-30T10:29:53;23.20;99.90
5802;DHT22;2927;49.366;8.530;2023-08-30T10:32:22;23.20;99.90
5802;DHT22;2927;49.366;8.530;2023-08-30T10:34:51;23.20;99.90
5802;DHT22;2927;49.366;8.530;2023-08-30T10:37:22;23.40;99.90
5802;DHT22;2927;49.366;8.530;2023-08-30T10:39:49;23.60;99.90
5802;DHT22;2927;49.366;8.530;2023-08-30T10:42:16;23.40;99.90
5802;DHT22;2927;49.366;8.530;2023-08-30T10:47:19;23.40;99.90
5802;DHT22;2927;49.366;8.530;2023-08-30T10:49:47;23.80;93.40
5802;DHT22;2927;49.366;8.530;2023-08-30T10:52:12;23.30;89.30
5802;DHT22;2927;49.366;8.530;2023-08-30T10:54:38;23.40;99.90
5802;DHT22;2927;49.366;8.530;2023-08-30T10:57:13;23.60;95.50
5802;DHT22;2927;49.366;8.530;2023-08-30T10:59:39;23.70;89.40
5802;DHT22;2927;49.366;8.530;2023-08-30T11:02:05;23.30;90.80
5802;DHT22;2927;49.366;8.530;2023-08-30T11:04:31;23.10;99.90
5802;DHT22;2927;49.366;8.530;2023-08-30T11:06:57;23.20;99.90
5802;DHT22;2927;49.366;8.530;2023-08-30T11:09:24;23.40;99.90
5802;DHT22;2927;49.366;8.530;2023-08-30T11:11:50;23.60;99.90
5802;DHT22;2927;49.366;8.530;2023-08-30T11:14:18;23.80;92.10
5802;DHT22;2927;49.366;8.530;2023-08-30T11:16:43;23.40;87.40
5802;DHT22;2927;49.366;8.530;2023-08-30T11:19:10;23.40;99.90
5802;DHT22;2927;49.366;8.530;2023-08-30T11:21:43;23.60;90.60
5802;DHT22;2927;49.366;8.530;2023-08-30T11:24:09;23.70;88.70
5802;DHT22;2927;49.366;8.530;2023-08-30T11:26:35;23.50;99.90
5802;DHT22;2927;49.366;8.530;2023-08-30T11:29:04;23.60;99.90
5802;DHT22;2927;49.366;8.530;2023-08-30T11:31:30;23.80;66.80
5802;DHT22;2927;49.366;8.530;2023-08-30T11:33:57;23.80;49.40
5802;DHT22;2927;49.366;8.530;2023-08-30T11:36:25;23.70;50.30
5802;DHT22;2927;49.366;8.530;2023-08-30T11:38:52;23.70;65.00
5802;DHT22;2927;49.366;8.530;2023-08-30T11:41:20;23.70;52.10
5802;DHT22;2927;49.366;8.530;2023-08-30T11:43:46;23.50;49.70
5802;DHT22;2927;49.366;8.530;2023-08-30T11:46:12;23.60;62.70
5802;DHT22;2927;49.366;8.530;2023-08-30T11:48:39;23.70;66.10
5802;DHT22;2927;49.366;8.530;2023-08-30T11:51:06;24.00;18.50
5802;DHT22;2927;49.366;8.530;2023-08-30T11:53:32;24.00;7.80
5802;DHT22;2927;49.366;8.530;2023-08-30T11:55:58;24.10;1.00
5802;DHT22;2927;49.366;8.530;2023-08-30T11:58:23;23.70;1.00
5802;DHT22;2927;49.366;8.530;2023-08-30T12:00:53;23.90;1.00
5802;DHT22;2927;49.366;8.530;2023-08-30T12:03:22;24.20;1.00
5802;DHT22;2927;49.366;8.530;2023-08-30T12:05:49;24.30;1.00
5802;DHT22;2927;49.366;8.530;2023-08-30T12:08:23;24.20;1.00
5802;DHT22;2927;49.366;8.530;2023-08-30T12:10:49;24.30;1.00
5802;DHT22;2927;49.366;8.530;2023-08-30T12:13:29;24.20;1.00
5802;DHT22;2927;49.366;8.530;2023-08-30T12:15:56;24.40;1.00
5802;DHT22;2927;49.366;8.530;2023-08-30T12:18:26;24.50;1.00
5802;DHT22;2927;49.366;8.530;2023-08-30T12:21:03;24.70;1.00
5802;DHT22;2927;49.366;8.530;2023-08-30T12:23:30;24.70;1.00
5802;DHT22;2927;49.366;8.530;2023-08-30T12:28:29;24.60;1.00
5802;DHT22;2927;49.366;8.530;2023-08-30T12:30:56;24.40;1.00
5802;DHT22;2927;49.366;8.530;2023-08-30T12:33:21;24.50;1.00
5802;DHT22;2927;49.366;8.530;2023-08-30T12:35:47;24.60;1.00
5802;DHT22;2927;49.366;8.530;2023-08-30T12:38:13;24.20;1.00
5802;DHT22;2927;49.366;8.530;2023-08-30T12:40:46;24.30;1.00
5802;DHT22;2927;49.366;8.530;2023-08-30T12:43:15;24.10;1.00
5802;DHT22;2927;49.366;8.530;2023-08-30T12:45:41;24.00;1.00
5802;DHT22;2927;49.366;8.530;2023-08-30T12:48:09;24.00;1.00
5802;DHT22;2927;49.366;8.530;2023-08-30T12:50:36;24.10;1.00
5802;DHT22;2927;49.366;8.530;2023-08-30T12:53:03;24.30;1.00
5802;DHT22;2927;49.366;8.530;2023-08-30T12:55:29;24.50;1.00
5802;DHT22;2927;49.366;8.530;2023-08-30T12:57:54;24.60;1.00
5802;DHT22;2927;49.366;8.530;2023-08-30T13:00:20;24.60;1.00
5802;DHT22;2927;49.366;8.530;2023-08-30T13:02:46;24.60;1.00
5802;DHT22;2927;49.366;8.530;2023-08-30T13:05:12;24.70;1.00
5802;DHT22;2927;49.366;8.530;2023-08-30T13:07:37;24.60;1.00
5802;DHT22;2927;49.366;8.530;2023-08-30T13:10:03;24.60;1.00
5802;DHT22;2927;49.366;8.530;2023-08-30T13:12:29;24.50;1.00
5802;DHT22;2927;49.366;8.530;2023-08-30T13:14:54;24.60;1.00
5802;DHT22;2927;49.366;8.530;2023-08-30T13:17:20;24.60;1.00
5802;DHT22;2927;49.366;8.530;2023-08-30T13:19:45;24.60;1.00
5802;DHT22;2927;49.366;8.530;2023-08-30T13:22:11;24.80;1.00
5802;DHT22;2927;49.366;8.530;2023-08-30T13:24:37;24.60;1.00
5802;DHT22;2927;49.366;8.530;2023-08-30T13:27:03;24.50;1.00
5802;DHT22;2927;49.366;8.530;2023-08-30T13:29:29;24.50;1.00
5802;DHT22;2927;49.366;8.530;2023-08-30T13:31:55;24.40;1.00
5802;DHT22;2927;49.366;8.530;2023-08-30T13:34:20;24.40;1.00
5802;DHT22;2927;49.366;8.530;2023-08-30T13:36:46;24.60;1.00
5802;DHT22;2927;49.366;8.530;2023-08-30T13:39:11;24.70;1.00
5802;DHT22;2927;49.366;8.530;2023-08-30T13:41:37;24.80;1.00
5802;DHT22;2927;49.366;8.530;2023-08-30T13:44:03;24.80;1.00
5802;DHT22;2927;49.366;8.530;2023-08-30T13:46:29;24.70;1.00
5802;DHT22;2927;49.366;8.530;2023-08-30T13:48:55;24.90;1.00
5802;DHT22;2927;49.366;8.530;2023-08-30T13:51:25;24.80;1.00
5802;DHT22;2927;49.366;8.530;2023-08-30T13:53:51;24.90;1.00
5802;DHT22;2927;49.366;8.530;2023-08-30T13:56:20;25.00;1.00
5802;DHT22;2927;49.366;8.530;2023-08-30T13:58:46;25.00;1.00
5802;DHT22;2927;49.366;8.530;2023-08-30T14:01:11;25.00;1.00
5802;DHT22;2927;49.366;8.530;2023-08-30T14:03:37;24.90;1.00
5802;DHT22;2927;49.366;8.530;2023-08-30T14:06:03;24.90;1.00
5802;DHT22;2927;49.366;8.530;2023-08-30T14:08:29;24.90;1.00
5802;DHT22;2927;49.366;8.530;2023-08-30T14:10:55;24.90;1.00
5802;DHT22;2927;49.366;8.530;2023-08-30T14:13:21;25.00;1.00
5802;DHT22;2927;49.366;8.530;2023-08-30T14:15:47;25.20;1.00
5802;DHT22;2927;49.366;8.530;2023-08-30T14:18:14;25.10;1.00
5802;DHT22;2927;49.366;8.530;2023-08-30T14:20:41;24.90;1.00
5802;DHT22;2927;49.366;8.530;2023-08-30T14:23:06;24.40;1.00
5802;DHT22;2927;49.366;8.530;2023-08-30T14:25:32;24.20;1.00
5802;DHT22;2927;49.366;8.530;2023-08-30T14:27:57;24.10;1.00
5802;DHT22;2927;49.366;8.530;2023-08-30T14:30:25;24.20;1.00
5802;DHT22;2927;49.366;8.530;2023-08-30T14:32:51;24.20;1.00
5802;DHT22;2927;49.366;8.530;2023-08-30T14:35:17;24.20;1.00
5802;DHT22;2927;49.366;8.530;2023-08-30T14:37:42;24.10;1.00
5802;DHT22;2927;49.366;8.530;2023-08-30T14:40:08;24.00;1.00
5802;DHT22;2927;49.366;8.530;2023-08-30T14:42:34;24.00;1.00
5802;DHT22;2927;49.366;8.530;2023-08-30T14:45:00;23.90;1.00
5802;DHT22;2927;49.366;8.530;2023-08-30T14:47:25;24.00;1.00
5802;DHT22;2927;49.366;8.530;2023-08-30T14:49:51;24.20;1.00
5802;DHT22;2927;49.366;8.530;2023-08-30T14:52:17;24.50;1.00
5802;DHT22;2927;49.366;8.530;2023-08-30T14:54:43;24.70;1.00
5802;DHT22;2927;49.366;8.530;2023-08-30T14:57:08;24.60;1.00
5802;DHT22;2927;49.366;8.530;2023-08-30T14:59:34;24.50;1.00
5802;DHT22;2927;49.366;8.530;2023-08-30T15:02:00;24.60;1.00
5802;DHT22;2927;49.366;8.530;2023-08-30T15:04:26;24.70;1.00
5802;DHT22;2927;49.366;8.530;2023-08-30T15:06:52;24.70;1.00
5802;DHT22;2927;49.366;8.530;2023-08-30T15:09:18;24.80;1.00
5802;DHT22;2927;49.366;8.530;2023-08-30T15:11:44;24.50;1.00
5802;DHT22;2927;49.366;8.530;2023-08-30T15:14:10;24.40;1.00
5802;DHT22;2927;49.366;8.530;2023-08-30T15:16:36;24.30;1.00
5802;DHT22;2927;49.366;8.530;2023-08-30T15:19:02;24.20;1.00
5802;DHT22;2927;49.366;8.530;2023-08-30T15:21:28;24.10;1.00
5802;DHT22;2927;49.366;8.530;2023-08-30T15:23:53;24.10;1.00
5802;DHT22;2927;49.366;8.530;2023-08-30T15:26:19;24.00;1.00
5802;DHT22;2927;49.366;8.530;2023-08-30T15:28:47;24.00;1.00
5802;DHT22;2927;49.366;8.530;2023-08-30T15:31:13;23.90;1.00
5802;DHT22;2927;49.366;8.530;2023-08-30T15:33:39;23.90;1.00
5802;DHT22;2927;49.366;8.530;2023-08-30T15:36:09;23.90;1.00
5802;DHT22;2927;49.366;8.530;2023-08-30T15:38:34;23.90;1.00
5802;DHT22;2927;49.366;8.530;2023-08-30T15:41:06;23.80;1.00
5802;DHT22;2927;49.366;8.530;2023-08-30T15:43:38;23.70;1.00
5802;DHT22;2927;49.366;8.530;2023-08-30T15:46:26;23.70;1.00
5802;DHT22;2927;49.366;8.530;2023-08-30T15:48:51;23.50;1.00
5802;DHT22;2927;49.366;8.530;2023-08-30T15:51:23;23.60;1.00
5802;DHT22;2927;49.366;8.530;2023-08-30T15:53:51;23.70;1.00
5802;DHT22;2927;49.366;8.530;2023-08-30T15:56:22;23.70;1.00
5802;DHT22;2927;49.366;8.530;2023-08-30T15:58:57;23.70;1.00
5802;DHT22;2927;49.366;8.530;2023-08-30T16:01:22;23.70;1.00
5802;DHT22;2927;49.366;8.530;2023-08-30T16:03:48;23.40;1.00
5802;DHT22;2927;49.366;8.530;2023-08-30T16:06:18;23.30;1.00
5802;DHT22;2927;49.366;8.530;2023-08-30T16:08:44;23.10;1.00
5802;DHT22;2927;49.366;8.530;2023-08-30T16:11:09;22.90;1.00
5802;DHT22;2927;49.366;8.530;2023-08-30T16:13:35;22.70;1.00